»·PEaware :: N161AK KSAN-KLAS

N161AK :: KSAN-KLAS

FLIGHT INFORMATION

Flight Status: Arrived
Operator: Privately registered:
United States
More flights under this callsign
Pilot: Eric D. (9648)
Aircraft: PIPER PA-31T-620 CHEYENNE 2
(PAY2)
More flights by this aircraft type
Origin: KSAN San Diego Intl-Lindbergh
United States
Destination: KLAS McCarran Intl
United States
More flights between these airports :: More routes between these airports
Route: BRDR7 JLI V514 GFS V538 LAS
File this flight plan on PilotEdge
Remarks:
Altitude:
(Current/Filed)
17,000ft
Speed:
(Current/Filed)
250kts
Departed: 16-Feb-20 01:12 PM
Arrived: 16-Feb-20 02:23 PM
Distance/Time
Traveled:
225nm/1:11
Distance/Time
To Go:
Arrived

Flight Plot

Page will automatically refresh every two minutes.

Flight plan parsing failed; only flown route is shown


Map Options




Map Legend


Flown Route
Filed Route
Departure Airport
Arrival Airport
Navaid (VOR, NDB)
Fix

Horizontal Profiles

Position Reports

Time Latitude Longitude Heading Altitude Ground
Speed
16-Feb-20 12:32 32.732420 -117.176641 194 18ft 0kts
16-Feb-20 12:33 32.732420 -117.176641 194 18ft 0kts
16-Feb-20 12:34 32.732420 -117.176641 194 18ft 0kts
16-Feb-20 12:35 32.732420 -117.176641 194 18ft 0kts
16-Feb-20 12:36 32.732420 -117.176641 194 18ft 0kts
16-Feb-20 12:37 32.732420 -117.176641 194 18ft 0kts
16-Feb-20 12:38 32.732420 -117.176641 194 18ft 0kts
16-Feb-20 12:39 32.732420 -117.176641 194 18ft 0kts
16-Feb-20 12:40 32.732420 -117.176641 194 18ft 0kts
16-Feb-20 12:41 32.732420 -117.176641 193 18ft 0kts
16-Feb-20 12:42 32.732420 -117.176641 193 18ft 0kts
16-Feb-20 12:43 32.732420 -117.176641 193 18ft 0kts
16-Feb-20 12:44 32.732420 -117.176641 193 18ft 0kts
16-Feb-20 12:45 32.732420 -117.176641 0 18ft 0kts
16-Feb-20 12:46 32.732420 -117.176641 193 18ft 0kts
16-Feb-20 12:47 32.732420 -117.176641 193 18ft 0kts
16-Feb-20 12:48 32.732420 -117.176641 193 18ft 0kts
16-Feb-20 12:49 32.732420 -117.176641 193 18ft 0kts
16-Feb-20 12:50 32.732420 -117.176641 193 18ft 0kts
16-Feb-20 12:51 32.732420 -117.176641 193 18ft 0kts
16-Feb-20 12:52 32.732420 -117.176641 194 18ft 0kts
16-Feb-20 12:53 32.732420 -117.176641 193 18ft 0kts
16-Feb-20 12:54 32.732420 -117.176641 193 18ft 0kts
16-Feb-20 12:55 32.732420 -117.176641 193 18ft 0kts
16-Feb-20 12:56 32.732420 -117.176641 193 18ft 0kts
16-Feb-20 12:57 32.732420 -117.176641 193 18ft 0kts
16-Feb-20 12:58 32.732420 -117.176641 193 18ft 0kts
16-Feb-20 12:59 32.732420 -117.176641 193 18ft 0kts
16-Feb-20 13:00 32.732420 -117.176641 194 18ft 0kts
16-Feb-20 13:01 32.732420 -117.176641 194 18ft 0kts
16-Feb-20 13:02 32.731351 -117.176492 123 18ft 7kts
16-Feb-20 13:03 32.731087 -117.175667 125 18ft 0kts
16-Feb-20 13:04 32.731087 -117.175667 125 18ft 0kts
16-Feb-20 13:05 32.731087 -117.175667 125 18ft 0kts
16-Feb-20 13:06 32.731087 -117.175667 125 18ft 0kts
16-Feb-20 13:07 32.730169 -117.175706 286 18ft 12kts
16-Feb-20 13:08 32.729594 -117.177346 89 18ft 0kts
16-Feb-20 13:09 32.729546 -117.177161 113 18ft 5kts
16-Feb-20 13:10 32.730046 -117.175800 344 18ft 11kts
16-Feb-20 13:11 32.737045 -117.205086 287 784ft 156kts
16-Feb-20 13:12 32.751979 -117.255717 290 3000ft 164kts
16-Feb-20 13:13 32.759680 -117.307834 234 4938ft 176kts
16-Feb-20 13:14 32.722342 -117.286691 125 6692ft 194kts
16-Feb-20 13:15 32.685000 -117.237631 134 8302ft 203kts
16-Feb-20 13:16 32.645614 -117.189658 133 9892ft 203kts
16-Feb-20 13:17 32.619528 -117.133935 92 11491ft 195kts
16-Feb-20 13:18 32.615679 -117.069956 90 12878ft 199kts
16-Feb-20 13:19 32.611772 -117.003217 91 14035ft 207kts
16-Feb-20 13:20 32.614848 -116.934025 79 14981ft 218kts
16-Feb-20 13:21 32.622676 -116.855571 80 15006ft 257kts
16-Feb-20 13:22 32.641616 -116.773660 42 15013ft 261kts
16-Feb-20 13:24 32.706677 -116.742716 11 15081ft 254kts
16-Feb-20 13:25 32.771723 -116.719348 10 16015ft 236kts
16-Feb-20 13:26 32.833132 -116.697199 10 16966ft 230kts
16-Feb-20 13:27 32.897730 -116.673891 10 17008ft 252kts
16-Feb-20 13:28 32.965742 -116.649295 10 17010ft 258kts
16-Feb-20 13:29 33.034506 -116.624409 11 17009ft 258kts
16-Feb-20 13:30 33.103500 -116.599381 11 17010ft 258kts
16-Feb-20 13:31 33.168223 -116.561633 30 17008ft 266kts
16-Feb-20 13:32 33.228213 -116.509764 30 16994ft 266kts
16-Feb-20 13:33 33.288103 -116.457664 30 16972ft 266kts
16-Feb-20 13:34 33.347985 -116.405488 30 16959ft 266kts
16-Feb-20 13:35 33.407826 -116.353258 30 16957ft 266kts
16-Feb-20 13:36 33.467641 -116.300949 31 16952ft 265kts
16-Feb-20 13:37 33.527185 -116.248795 31 16952ft 265kts
16-Feb-20 13:38 33.586850 -116.196440 31 16953ft 265kts
16-Feb-20 13:39 33.646921 -116.145171 28 16953ft 264kts
16-Feb-20 13:40 33.708484 -116.095774 28 16953ft 269kts
16-Feb-20 13:41 33.771008 -116.045545 28 16953ft 271kts
16-Feb-20 13:42 33.833739 -115.995078 28 16953ft 272kts
16-Feb-20 13:43 33.896540 -115.944461 28 16953ft 272kts
16-Feb-20 13:44 33.959767 -115.896910 23 16921ft 274kts
16-Feb-20 13:45 34.019322 -115.845929 32 16934ft 284kts
16-Feb-20 13:46 34.083457 -115.795550 26 17032ft 272kts
16-Feb-20 13:47 34.143458 -115.738562 38 17038ft 276kts
16-Feb-20 13:48 34.198817 -115.673883 41 17038ft 278kts
16-Feb-20 13:49 34.255772 -115.612058 37 17039ft 276kts
16-Feb-20 13:50 34.311300 -115.547580 39 17039ft 277kts
16-Feb-20 13:51 34.378017 -115.506805 19 17039ft 269kts
16-Feb-20 13:52 34.447590 -115.475209 10 17039ft 265kts
16-Feb-20 13:53 34.518372 -115.448728 15 17039ft 267kts
16-Feb-20 13:54 34.587496 -115.414420 15 17027ft 268kts
16-Feb-20 13:55 34.658145 -115.387207 16 16997ft 268kts
16-Feb-20 13:56 34.727288 -115.351868 14 16976ft 267kts
16-Feb-20 13:57 34.797512 -115.323997 12 16970ft 266kts
16-Feb-20 13:58 34.867676 -115.294034 15 16970ft 267kts
16-Feb-20 13:59 34.937342 -115.262363 16 16970ft 269kts
16-Feb-20 14:00 35.008134 -115.231658 15 16971ft 272kts
16-Feb-20 14:01 35.080511 -115.202316 16 16974ft 274kts
16-Feb-20 14:02 35.152998 -115.180773 0 16942ft 266kts
16-Feb-20 14:03 35.226563 -115.174026 0 16945ft 265kts
16-Feb-20 14:04 35.299963 -115.170606 354 16938ft 263kts
16-Feb-20 14:05 35.374063 -115.171943 355 16023ft 262kts
16-Feb-20 14:06 35.446459 -115.172439 358 15088ft 260kts
16-Feb-20 14:07 35.518443 -115.170589 359 14175ft 259kts
16-Feb-20 14:08 35.590458 -115.168313 357 13287ft 258kts
16-Feb-20 14:09 35.661829 -115.167562 358 12337ft 254kts
16-Feb-20 14:10 35.730462 -115.166747 358 12038ft 240kts
16-Feb-20 14:11 35.797772 -115.165439 359 11328ft 243kts
16-Feb-20 14:12 35.862685 -115.163399 359 10111ft 228kts
16-Feb-20 14:13 35.925081 -115.162061 359 9054ft 218kts
16-Feb-20 14:14 35.984220 -115.148162 18 8456ft 224kts
16-Feb-20 14:15 36.038110 -115.112619 34 6981ft 215kts
16-Feb-20 14:16 36.089242 -115.081760 23 5572ft 202kts
16-Feb-20 14:17 36.139409 -115.050749 28 4254ft 193kts
16-Feb-20 14:18 36.181118 -115.039705 304 4247ft 133kts
16-Feb-20 14:19 36.182262 -115.080015 232 4279ft 135kts
16-Feb-20 14:20 36.157126 -115.112235 226 4009ft 123kts
16-Feb-20 14:21 36.130383 -115.138714 205 2900ft 123kts
16-Feb-20 14:22 36.100040 -115.156216 204 2185ft 120kts
16-Feb-20 14:23 36.085508 -115.164629 210 2141ft 16kts
16-Feb-20 14:24 36.083803 -115.166585 233 2151ft 0kts
16-Feb-20 14:25 36.083039 -115.168350 16 2160ft 9kts
16-Feb-20 14:25 36.086272 -115.166514 25 2146ft 19kts
16-Feb-20 14:27 36.089742 -115.165883 288 2135ft 7kts
16-Feb-20 14:28 36.090014 -115.165823 81 2135ft 0kts
16-Feb-20 14:29 36.090014 -115.165823 81 2135ft 0kts
16-Feb-20 14:30 36.090014 -115.165823 81 2135ft 0kts
16-Feb-20 14:31 36.090014 -115.165823 81 2135ft 0kts
16-Feb-20 14:32 36.090014 -115.165823 81 2135ft 0kts
16-Feb-20 14:33 36.090014 -115.165823 81 2135ft 0kts
16-Feb-20 14:33 36.090014 -115.165823 81 2135ft 0kts
16-Feb-20 14:35 36.090014 -115.165823 81 2135ft 0kts
16-Feb-20 14:35 36.090014 -115.165823 81 2135ft 0kts
16-Feb-20 14:37 36.090014 -115.165823 81 2135ft 0kts
16-Feb-20 14:38 36.090014 -115.165823 81 2135ft 0kts

Navigation Log

Ident Type
Flight plan parsing failed, navigation log unavailable